Scottsbluff, NE (69361)

1:46 AM MST on February 08, 2016 (GMT -0700)
Scottsbluff Main St Mrkt | | Change Station
CLOSE
Current Station
Personal Weather Station
Location: Scottsbluff, NE
Elevation: 3881 ft
Nearby Weather Stations

Elev 3881 ft 41.86 °N, 103.67 °W | Updated 3 minutes ago

Clear
Clear
25.0 °F
Feels Like 14 °F
N
12.0
Wind Variable Wind from NNW
Gusts 20.0 mph

Today
High -- | Low -- °F
--% Chance of Precip.
Yesterday
High -- | Low -- °F
Precip. -- in
Pressure 30.47 in
Visibility 10.0 miles
Clouds Clear
Windchill 14 °F
Dew Point 14 °F
Humidity 62%
Rainfall 0.00 in
Snow Depth Not available.
6:59 AM 5:18 PM
Waning Crescent, 0% visible
METAR KBFF 080753Z AUTO 30013KT 10SM CLR M04/M11 A3037 RMK AO2 SLP317 T10441111
Pressure 30.47 in
Visibility 10.0 miles
Clouds Clear
Windchill 14 °F
Dew Point 14 °F
Humidity 62%
Rainfall 0.00 in
Snow Depth Not available.
6:59 AM 5:18 PM
Waning Crescent, 0% visible
METAR KBFF 080753Z AUTO 30013KT 10SM CLR M04/M11 A3037 RMK AO2 SLP317 T10441111

10-Day Weather Forecast

Almanac

Astronomy

Feb. 08, 2016 Rise Set
Actual Time
Civil Twilight
Nautical Twilight
Astronomical Twilight
Moon
Length of Visible Light
Length of Day
Tomorrow will be .
, % of the Moon is Illuminated

Today's Extremes

State Highs State Lows

Community

WunderPhotos

Upload Photos

1,891,412 photos uploaded!

WunderBlog® & News

Nearby

Air Quality

  Air Quality AQ Index Pollutant
Not available.

Snow Depth

Station Depth Elevation

Earthquake Activity

City Distance Mag. Time & Date
Minimum magnitude displayed is 2.5.

Coastal Water Temperatures

Place Temperature

Stations

Nearby Weather Stations

Station Location Temp. Windchill Dew Point Humidity Wind Precip. Elev Updated Type
                   

Watches & Warnings

There are currently no watches in effect.